Latest Weather Observations for Orange Airport

IDN60801

Issued at 12:52 am EDT Monday 26 October 2020 (issued every 10 minutes, with the page automatically refreshed every 10 minutes)

About weather observations | Map of weather stations | Latest weather observations for NSW | Other Formats
Station Details ID: 063303 Name: ORANGE AIRPORT AWS Lat: -33.38 Lon: 149.13 Height: 944.65 m
Data from the previous 72 hours. | See also: Recent months at Orange Airport
Date/Time
EDT
Temp
°C
App
Temp
°C
Dew
Point
°C
Rel
Hum
%
Delta-T
°C
Wind Press
QNH
hPa
Press
MSL
hPa
Rain since
9am
mm
Dir  Spd
km/h
Gust
km/h
Spd
kts
Gust
kts
26/12:47am 8.3 4.0 7.2 93 0.5 ESE 19 26 10 14 1015.7 1014.0 13.6
26/12:30am 8.1 4.2 7.0 93 0.5 ESE 17 28 9 15 1015.7 1014.0 13.4
26/12:00am 8.0 3.5 7.1 94 0.4 ESE 20 28 11 15 1015.6 1013.9 13.4
 
Date/Time
EDT
Temp
°C
App
Temp
°C
Dew
Point
°C
Rel
Hum
%
Delta-T
°C
Wind Press
QNH
hPa
Press
MSL
hPa
Rain since
9am
mm
Dir  Spd
km/h
Gust
km/h
Spd
kts
Gust
kts
25/11:30pm 8.0 3.5 7.1 94 0.4 ESE 20 30 11 16 1015.9 1014.1 13.4
25/11:00pm 8.0 3.7 7.1 94 0.4 ESE 19 28 10 15 1015.9 1014.1 13.4
25/10:30pm 8.0 3.6 7.2 95 0.4 ESE 20 30 11 16 1016.2 1014.4 13.4
25/10:00pm 8.1 3.7 7.2 94 0.4 ESE 20 28 11 15 1016.2 1014.4 13.2
25/09:30pm 8.3 4.0 7.1 92 0.6 ESE 19 30 10 16 1016.2 1014.4 12.8
25/09:00pm 8.5 3.3 7.1 91 0.7 ESE 24 32 13 17 1016.0 1014.2 12.8
25/08:30pm 8.3 3.1 7.1 92 0.6 ESE 24 33 13 18 1015.7 1014.0 12.8
25/08:26pm 8.4 3.2 7.2 92 0.6 ESE 24 35 13 19 1015.6 1013.9 12.8
25/08:00pm 8.5 3.8 7.9 96 0.3 SE 22 28 12 15 1015.7 1014.0 12.8
25/07:30pm 8.9 4.7 8.3 96 0.3 E 20 26 11 14 1015.3 1013.5 12.8
25/07:00pm 9.3 5.1 8.2 93 0.6 E 20 28 11 15 1015.0 1013.2 12.8
25/06:30pm 9.5 5.0 8.6 94 0.5 E 22 32 12 17 1014.3 1012.5 12.8
25/06:21pm 9.6 5.1 8.7 94 0.5 E 22 35 12 19 1014.2 1012.4 12.8
25/06:00pm 10.0 4.4 8.8 92 0.6 ESE 28 39 15 21 1013.8 1012.0 12.8
25/05:59pm 9.9 4.3 8.7 92 0.6 ESE 28 39 15 21 1013.8 1012.0 12.8
25/05:30pm 9.8 4.3 9.2 96 0.3 E 28 39 15 21 1013.7 1011.9 12.8
25/05:00pm 9.9 4.5 9.6 98 0.2 E 28 41 15 22 1013.3 1011.5 12.8
25/04:48pm 10.0 4.7 9.9 99 0.1 E 28 39 15 21 1013.2 1011.4 12.8
25/04:30pm 10.6 7.0 10.4 99 0.1 E 20 28 11 15 1013.1 1011.3 12.6
25/04:00pm 10.4 7.3 10.2 99 0.1 ENE 17 24 9 13 1013.0 1011.2 11.6
25/03:30pm 11.0 8.0 10.8 99 0.1 ENE 17 24 9 13 1012.8 1011.0 11.2
25/03:00pm 11.6 8.4 11.4 99 0.1 ENE 19 24 10 13 1012.8 1011.0 10.8
25/02:30pm 11.8 9.5 11.6 99 0.1 E 15 20 8 11 1012.9 1011.1 10.0
25/02:00pm 11.8 9.7 11.3 97 0.3 ENE 13 19 7 10 1012.9 1011.1 8.8
25/01:49pm 11.8 9.3 11.0 95 0.4 E 15 20 8 11 1012.8 1011.0 8.6
25/01:30pm 12.6 10.3 11.8 95 0.4 ENE 15 20 8 11 1012.6 1010.7 8.6
25/01:11pm 12.7 10.6 12.5 99 0.1 ENE 15 20 8 11 1012.6 1010.7 8.6
25/01:00pm 12.4 10.2 12.2 99 0.1 E 15 20 8 11 1012.6 1010.7 8.6
25/12:59pm 12.5 10.4 12.3 99 0.1 E 15 22 8 12 1012.5 1010.6 8.6
25/12:40pm 11.8 9.5 11.6 99 0.1 ENE 15 20 8 11 1012.6 1010.7 8.4
25/12:30pm 11.7 8.9 11.5 99 0.1 ENE 17 24 9 13 1012.6 1010.7 8.0
25/12:29pm 11.8 9.1 11.6 99 0.1 ENE 17 24 9 13 1012.6 1010.7 8.0
25/12:00pm 11.4 8.9 11.2 99 0.1 ENE 15 22 8 12 1012.6 1010.7 6.6
25/11:55am 11.4 8.6 11.2 99 0.1 ENE 17 22 9 12 1012.6 1010.7 6.4
25/11:30am 11.4 8.6 11.2 99 0.1 ENE 17 24 9 13 1012.6 1010.7 4.0
25/11:00am 11.8 8.7 11.6 99 0.1 E 19 26 10 14 1012.4 1010.5 2.6
25/10:30am 12.1 9.8 11.9 99 0.1 ENE 15 22 8 12 1012.4 1010.5 1.6
25/10:00am 11.7 9.7 11.5 99 0.1 SSE 13 15 7 8 1012.0 1010.2 0.2
25/09:30am 10.8 8.5 10.6 99 0.1 S 13 19 7 10 1012.0 1010.2 0.0
25/09:28am 10.6 7.9 10.4 99 0.1 S 15 19 8 10 1012.0 1010.2 0.0
25/09:16am 10.4 7.7 10.2 99 0.1 S 15 19 8 10 1011.9 1010.1 0.0
25/09:01am 10.3 7.1 10.1 99 0.1 SSE 17 20 9 11 1011.8 1010.0 0.0
25/09:00am 10.4 7.3 10.2 99 0.1 SSE 17 20 9 11 1011.8 1010.0 31.4
25/08:30am 10.2 8.2 10.1 99 0.1 SSW 11 15 6 8 1011.5 1009.6 31.0
25/08:15am 10.3 8.7 10.1 99 0.1 SSW 9 13 5 7 1011.4 1009.5 31.0
25/08:00am 10.0 7.2 9.9 99 0.1 SSW 15 19 8 10 1011.1 1009.3 31.0
25/07:32am 10.2 8.6 10.1 99 0.1 SSW 9 15 5 8 1010.9 1009.1 31.0
25/07:30am 10.1 8.4 10.0 99 0.1 SSW 9 11 5 6 1010.8 1009.0 31.0
25/07:15am 10.2 9.1 10.1 99 0.1 S 6 9 3 5 1010.6 1008.7 31.0
25/07:00am 10.4 8.4 10.2 99 0.1 S 11 13 6 7 1010.3 1008.4 31.0
25/06:50am 10.4 8.8 10.2 99 0.1 S 9 11 5 6 1010.1 1008.2 31.0
25/06:44am 10.4 8.8 10.2 99 0.1 SSW 9 11 5 6 1010.1 1008.2 31.0
25/06:30am 10.3 9.6 10.1 99 0.1 S 4 7 2 4 1009.8 1007.9 31.0
25/06:00am 10.3 8.3 10.1 99 0.1 SW 11 13 6 7 1009.7 1007.8 31.0
25/05:30am 10.5 8.9 10.3 99 0.1 SSW 9 13 5 7 1009.5 1007.6 31.0
25/05:00am 10.7 8.8 10.5 99 0.1 SW 11 15 6 8 1009.1 1007.2 31.0
25/04:30am 11.0 8.8 10.8 99 0.1 SW 13 19 7 10 1008.7 1006.8 31.0
25/04:00am 11.9 9.6 11.7 99 0.1 SW 15 20 8 11 1008.2 1006.3 31.0
25/03:52am 12.4 11.0 12.2 99 0.1 SSW 11 20 6 11 1008.2 1006.3 31.0
25/03:39am 12.3 11.2 12.1 99 0.1 SSW 9 11 5 6 1008.0 1006.0 31.0
25/03:30am 12.0 11.2 11.8 99 0.1 SW 7 9 4 5 1008.0 1006.0 31.0
25/03:00am 11.5 11.9 11.3 99 0.1 CALM 0 0 0 0 1008.0 1006.0 31.0
25/02:30am 11.8 12.3 11.6 99 0.1 CALM 0 0 0 0 1008.0 1006.0 31.0
25/02:00am 12.0 12.6 11.8 99 0.1 CALM 0 0 0 0 1008.4 1006.5 31.0
25/01:30am 12.0 12.6 11.8 99 0.1 CALM 0 0 0 0 1008.6 1006.7 31.0
25/01:18am 12.0 12.6 11.8 99 0.1 CALM 0 0 0 0 1008.5 1006.6 31.0
25/01:10am 12.0 12.6 11.8 99 0.1 CALM 0 0 0 0 1008.5 1006.6 31.0
25/01:00am 12.0 12.6 11.8 99 0.1 CALM 0 0 0 0 1008.6 1006.7 31.0
25/12:48am 12.0 12.6 11.8 99 0.1 CALM 0 0 0 0 1008.7 1006.8 30.8
25/12:38am 11.8 12.3 11.6 99 0.1 CALM 0 0 0 0 1008.7 1006.8 30.8
25/12:30am 11.7 12.2 11.5 99 0.1 CALM 0 0 0 0 1008.7 1006.8 30.8
25/12:00am 11.8 11.0 11.6 99 0.1 N 7 9 4 5 1008.5 1006.6 30.6
 
Date/Time
EDT
Temp
°C
App
Temp
°C
Dew
Point
°C
Rel
Hum
%
Delta-T
°C
Wind Press
QNH
hPa
Press
MSL
hPa
Rain since
9am
mm
Dir  Spd
km/h
Gust
km/h
Spd
kts
Gust
kts
24/11:56pm 11.8 11.0 11.6 99 0.1 N 7 9 4 5 1008.6 1006.7 30.6
24/11:30pm 11.9 11.1 11.7 99 0.1 NW 7 9 4 5 1008.7 1006.8 29.8
24/11:08pm 11.9 11.1 11.7 99 0.1 NW 7 9 4 5 1008.8 1006.9 28.6
24/11:00pm 11.9 10.7 11.7 99 0.1 WNW 9 11 5 6 1008.8 1006.9 28.2
24/10:57pm 11.9 10.7 11.7 99 0.1 WNW 9 13 5 7 1008.8 1006.9 28.2
24/10:30pm 12.2 11.1 12.0 99 0.1 NNW 9 13 5 7 1008.8 1006.9 25.0
24/10:23pm 12.4 11.4 12.2 99 0.1 NNW 9 11 5 6 1008.7 1006.8 23.4
24/10:01pm 12.8 11.9 12.6 99 0.1 NNW 9 13 5 7 1008.6 1006.7 22.4
24/10:00pm 12.8 12.3 12.6 99 0.1 NNW 7 13 4 7 1008.7 1006.8 22.2
24/09:43pm 12.9 11.3 12.7 99 0.1 SW 13 17 7 9 1008.6 1006.7 21.8
24/09:30pm 12.8 10.4 12.6 99 0.1 SSW 17 22 9 12 1008.4 1006.5 21.6
24/09:11pm 13.2 11.6 12.9 98 0.2 SW 13 20 7 11 1008.2 1006.3 20.0
24/09:00pm 14.0 12.4 13.8 99 0.1 W 15 20 8 11 1007.7 1005.8 18.6
24/08:33pm 13.6 13.3 13.4 99 0.1 N 7 11 4 6 1006.9 1004.9 16.0
24/08:30pm 13.5 12.8 13.3 99 0.1 N 9 11 5 6 1006.9 1004.9 16.0
24/08:29pm 13.5 12.8 13.3 99 0.1 N 9 11 5 6 1006.8 1004.8 16.0
24/08:08pm 14.0 13.9 13.8 99 0.1 NNW 7 11 4 6 1006.7 1004.7 16.0
24/08:00pm 14.1 14.6 13.9 99 0.1 WNW 4 7 2 4 1006.4 1004.5 16.0
24/07:30pm 14.4 12.9 14.2 99 0.1 N 15 17 8 9 1006.3 1004.4 16.0
24/07:00pm 14.9 13.9 14.7 99 0.1 N 13 15 7 8 1006.0 1004.0 16.0
24/06:30pm 15.2 14.6 14.6 96 0.4 N 11 15 6 8 1005.8 1003.8 16.0
24/06:00pm 15.7 14.0 14.7 94 0.6 NNW 17 24 9 13 1005.6 1003.6 16.0
24/05:30pm 15.5 14.7 15.2 98 0.2 NNW 13 19 7 10 1005.7 1003.7 16.0
24/05:13pm 15.2 14.3 14.9 98 0.2 NNW 13 19 7 10 1005.8 1003.8 16.0
24/05:00pm 15.0 14.0 14.7 98 0.2 NNW 13 17 7 9 1005.8 1003.8 16.0
24/04:30pm 14.9 15.0 14.4 97 0.3 NW 7 11 4 6 1005.4 1003.5 16.0
24/04:09pm 15.0 13.9 14.4 96 0.4 NNW 13 17 7 9 1005.9 1003.9 16.0
24/04:00pm 15.1 13.6 14.3 95 0.5 NNW 15 20 8 11 1006.0 1004.0 16.0
24/03:30pm 15.4 12.9 14.1 92 0.8 NW 20 32 11 17 1006.1 1004.1 16.0
24/03:00pm 15.8 14.2 13.8 88 1.2 W 15 20 8 11 1006.0 1004.0 15.6
24/02:42pm 16.4 14.3 14.6 89 1.1 W 19 26 10 14 1006.2 1004.3 15.6
24/02:30pm 16.2 14.1 14.7 91 0.9 W 19 32 10 17 1006.3 1004.4 15.6
24/02:25pm 16.1 14.0 14.6 91 0.9 W 19 32 10 17 1006.4 1004.5 15.6
24/02:22pm 16.1 13.6 14.1 88 1.2 W 20 32 11 17 1006.5 1004.6 14.8
24/02:00pm 17.1 14.1 14.7 86 1.5 NW 24 30 13 16 1006.5 1004.6 13.4
24/01:30pm 17.1 14.7 15.3 89 1.1 NW 22 30 12 16 1006.8 1004.8 13.2
24/01:00pm 16.5 14.6 15.7 95 0.5 NW 20 28 11 15 1007.3 1005.4 13.2
24/12:30pm 16.5 13.9 16.0 97 0.3 NW 24 33 13 18 1008.0 1006.0 13.2
24/12:00pm 15.9 13.2 15.7 99 0.1 NW 24 32 13 17 1008.3 1006.4 13.2
24/11:30am 15.8 12.3 15.6 99 0.1 NNW 28 39 15 21 1008.4 1006.5 13.0
24/11:00am 15.6 11.7 15.4 99 0.1 NNW 30 43 16 23 1008.6 1006.7 12.6
24/10:45am 15.3 11.6 15.1 99 0.1 NNW 28 39 15 21 1008.8 1006.9 12.4
24/10:30am 15.3 10.9 15.1 99 0.1 NNW 32 46 17 25 1008.8 1006.9 12.2
24/10:04am 15.3 10.9 15.1 99 0.1 NNW 32 50 17 27 1008.6 1006.7 7.4
24/10:00am 15.3 11.3 15.1 99 0.1 NNW 30 41 16 22 1008.7 1006.8 6.8
24/09:51am 15.3 11.3 15.1 99 0.1 NNW 30 44 16 24 1008.7 1006.8 5.4
24/09:44am 15.4 11.0 15.2 99 0.1 NNW 32 44 17 24 1008.7 1006.8 4.6
24/09:30am 15.4 12.2 15.2 99 0.1 N 26 44 14 24 1008.5 1006.6 4.4
24/09:12am 15.4 12.2 15.2 99 0.1 N 26 33 14 18 1008.6 1006.7 0.6
24/09:00am 15.3 12.0 15.1 99 0.1 N 26 41 14 22 1008.8 1006.9 20.2
24/08:30am 15.3 11.6 15.1 99 0.1 N 28 39 15 21 1009.0 1007.1 20.2
24/08:00am 15.2 11.5 15.0 99 0.1 N 28 35 15 19 1009.2 1007.3 20.2
24/07:30am 15.0 10.9 14.8 99 0.1 N 30 39 16 21 1009.0 1007.1 20.2
24/07:19am 14.7 11.2 14.5 99 0.1 N 26 33 14 18 1009.0 1007.1 20.2
24/07:00am 14.4 11.8 13.9 97 0.3 N 20 28 11 15 1008.8 1006.9 20.2
24/06:30am 14.2 11.6 13.7 97 0.3 N 20 26 11 14 1008.7 1006.8 20.2
24/06:00am 14.3 11.8 14.1 99 0.1 N 20 24 11 13 1008.5 1006.6 20.0
24/05:30am 14.3 11.4 14.1 99 0.1 N 22 32 12 17 1008.6 1006.7 20.0
24/05:00am 14.0 12.0 13.8 99 0.1 N 17 24 9 13 1008.6 1006.7 19.6
24/04:30am 14.1 11.5 13.9 99 0.1 N 20 28 11 15 1008.8 1006.9 19.6
24/04:00am 14.1 12.1 13.9 99 0.1 N 17 22 9 12 1009.1 1007.2 19.6
24/03:44am 14.2 11.9 14.0 99 0.1 N 19 22 10 12 1009.5 1007.6 19.6
24/03:30am 14.2 11.9 14.0 99 0.1 N 19 26 10 14 1009.6 1007.7 19.4
24/03:17am 14.4 11.2 14.2 99 0.1 NNW 24 32 13 17 1009.9 1008.1 19.2
24/03:00am 14.5 11.7 14.3 99 0.1 NNW 22 32 12 17 1010.2 1008.3 18.6
24/02:58am 14.5 11.3 14.3 99 0.1 NNW 24 37 13 20 1010.2 1008.3 18.4
24/02:30am 14.7 10.7 14.2 97 0.3 NNW 28 41 15 22 1010.3 1008.4 18.0
24/02:20am 14.8 11.0 14.6 99 0.1 N 28 43 15 23 1010.5 1008.6 18.0
24/02:00am 14.6 12.8 14.4 99 0.1 NNW 17 24 9 13 1010.8 1009.0 18.0
24/01:58am 14.6 13.2 14.4 99 0.1 NNW 15 24 8 13 1010.8 1009.0 18.0
24/01:55am 14.6 13.5 14.4 99 0.1 NNW 13 19 7 10 1010.9 1009.1 18.0
24/01:30am 14.5 13.4 14.3 99 0.1 N 13 17 7 9 1011.7 1009.8 16.6
24/01:26am 14.5 13.4 14.3 99 0.1 N 13 17 7 9 1011.8 1010.0 16.0
24/01:00am 14.0 14.8 13.8 99 0.1 SSE 2 9 1 5 1011.8 1010.0 15.6
24/12:51am 14.0 14.1 13.8 99 0.1 SE 6 9 3 5 1011.5 1009.6 15.6
24/12:49am 14.1 14.2 13.9 99 0.1 SE 6 7 3 4 1011.7 1009.8 15.6
24/12:30am 14.3 12.4 14.1 99 0.1 SW 17 26 9 14 1011.8 1010.0 15.2
24/12:18am 14.3 12.0 14.1 99 0.1 SW 19 24 10 13 1012.0 1010.2 13.4
24/12:12am 14.4 12.9 14.2 99 0.1 WSW 15 22 8 12 1012.2 1010.4 10.8
24/12:00am 14.4 15.7 14.2 99 0.1 CALM 0 9 0 5 1011.6 1009.7 8.6
 
Date/Time
EDT
Temp
°C
App
Temp
°C
Dew
Point
°C
Rel
Hum
%
Delta-T
°C
Wind Press
QNH
hPa
Press
MSL
hPa
Rain since
9am
mm
Dir  Spd
km/h
Gust
km/h
Spd
kts
Gust
kts
23/11:43pm 14.3 14.3 14.1 99 0.1 SSE 7 9 4 5 1010.9 1009.1 8.6
23/11:30pm 14.4 14.0 14.1 98 0.2 S 9 13 5 7 1011.1 1009.3 8.4
23/11:04pm 15.1 12.1 13.6 91 0.9 WSW 22 39 12 21 1011.8 1010.0 1.6
23/11:00pm 15.6 14.1 13.1 85 1.5 NW 13 35 7 19 1011.8 1010.0 1.0
23/10:30pm 16.6 14.8 12.0 74 2.6 NNE 13 17 7 9 1011.3 1009.4 0.2
23/10:00pm 17.3 15.4 11.8 70 3.2 NE 13 15 7 8 1011.0 1009.2 0.0
23/09:30pm 16.6 15.0 11.7 73 2.8 NNE 11 15 6 8 1011.0 1009.2 0.0
23/09:00pm 15.9 14.2 11.3 74 2.6 NNE 11 13 6 7 1011.0 1009.2 0.0
23/08:30pm 17.0 15.4 11.7 71 3.0 NE 11 15 6 8 1010.8 1009.0 0.0
23/08:00pm 17.6 16.2 12.1 70 3.2 NE 11 13 6 7 1011.1 1009.3 0.0
23/07:30pm 17.7 17.1 12.2 70 3.2 NE 7 9 4 5 1011.4 1009.5 0.0
23/07:00pm 18.5 17.9 12.3 67 3.6 NNE 7 9 4 5 1011.5 1009.6 0.0
23/06:30pm 19.2 18.3 12.7 66 3.8 N 9 13 5 7 1011.5 1009.6 0.0
23/06:00pm 19.8 18.3 13.0 65 4.0 N 13 15 7 8 1011.0 1009.2 0.0
23/05:30pm 20.0 17.6 12.5 62 4.4 N 17 24 9 13 1011.1 1009.3 0.0
23/05:00pm 21.4 19.1 13.1 59 5.0 NNE 17 20 9 11 1011.3 1009.4 0.0
23/04:30pm 20.7 17.6 12.1 58 5.0 NNE 20 26 11 14 1011.5 1009.6 0.0
23/04:00pm 21.2 18.6 12.1 56 5.3 NNE 17 28 9 15 1011.8 1010.0 0.0
23/03:30pm 20.8 17.4 11.4 55 5.4 NNE 20 28 11 15 1012.6 1010.7 0.0
23/03:00pm 21.3 17.4 12.2 56 5.4 NNE 24 32 13 17 1013.1 1011.3 0.0
23/02:30pm 21.6 17.7 13.2 59 5.0 NNE 26 37 14 20 1013.7 1011.9 0.0
23/02:00pm 21.4 17.7 13.8 62 4.6 NNE 26 39 14 21 1013.9 1012.1 0.0
23/01:30pm 21.1 18.3 14.3 65 4.1 NNE 22 30 12 16 1014.1 1012.3 0.0
23/01:00pm 20.5 18.2 14.2 67 3.8 N 19 35 10 19 1014.7 1012.9 0.0
23/12:30pm 20.8 18.6 14.5 67 3.8 NNE 19 32 10 17 1015.0 1013.2 0.0
23/12:00pm 20.3 17.7 13.3 64 4.2 N 19 28 10 15 1015.6 1013.9 0.0
23/11:30am 19.2 16.3 12.9 67 3.7 N 20 26 11 14 1015.9 1014.1 0.0
23/11:00am 18.6 15.2 12.6 68 3.5 NNE 22 30 12 16 1015.7 1014.0 0.0
23/10:30am 18.8 15.6 13.0 69 3.4 NNE 22 30 12 16 1016.0 1014.2 0.0
23/10:00am 18.6 16.2 12.6 68 3.5 NNE 17 22 9 12 1015.9 1014.1 0.0
23/09:30am 17.6 14.8 12.5 72 3.0 NNE 19 24 10 13 1015.9 1014.1 0.0
23/09:00am 17.4 16.0 13.3 77 2.4 NE 13 17 7 9 1016.1 1014.3 0.0
23/08:30am 15.9 14.5 13.4 85 1.5 NNE 13 17 7 9 1016.5 1014.8 0.0
23/08:00am 14.2 12.9 12.4 89 1.0 ENE 11 15 6 8 1016.3 1014.5 0.0
23/07:30am 13.7 13.7 13.5 99 0.1 NE 6 9 3 5 1016.1 1014.3 0.0
23/07:00am 12.0 10.9 11.8 99 0.1 NE 9 11 5 6 1015.9 1014.1 0.0
23/06:30am 10.0 8.3 9.9 99 0.1 NE 9 9 5 5 1015.6 1013.9 0.0
23/06:22am 9.9 8.2 9.8 99 0.1 NNE 9 11 5 6 1015.5 1013.8 0.0
23/06:00am 8.6 7.8 8.3 98 0.2 NNE 2 7 1 4 1015.3 1013.5 0.0
23/05:37am 9.5 9.4 9.4 99 0.1 CALM 0 0 0 0 1015.3 1013.5 0.0
23/05:30am 9.8 9.8 9.7 99 0.1 CALM 0 0 0 0 1015.3 1013.5 0.0
23/05:05am 9.5 9.4 9.4 99 0.1 CALM 0 0 0 0 1015.4 1013.6 0.0
23/05:00am 9.6 9.5 9.5 99 0.1 CALM 0 0 0 0 1015.5 1013.8 0.0
23/04:30am 9.1 8.0 8.5 96 0.3 NW 4 7 2 4 1015.3 1013.5 0.0
23/04:28am 9.1 8.0 8.5 96 0.3 NW 4 7 2 4 1015.4 1013.6 0.0
23/04:25am 9.3 8.6 8.7 96 0.3 NW 2 7 1 4 1015.5 1013.8 0.0
23/04:06am 10.0 8.7 9.2 95 0.4 NE 6 9 3 5 1015.4 1013.6 0.0
23/04:00am 10.0 8.2 9.4 96 0.3 NE 9 9 5 5 1015.3 1013.5 0.0
23/03:47am 11.4 10.5 11.2 99 0.1 NNE 7 9 4 5 1015.1 1013.3 0.0
23/03:30am 10.6 9.4 9.5 93 0.6 NE 6 9 3 5 1014.9 1013.1 0.0
23/03:28am 10.4 8.9 9.0 91 0.7 NE 7 9 4 5 1014.9 1013.1 0.0
23/03:00am 11.6 11.4 10.3 92 0.7 ENE 2 7 1 4 1015.1 1013.3 0.0
23/02:30am 12.5 11.0 10.7 89 1.0 NE 9 15 5 8 1015.1 1013.3 0.0
23/02:00am 12.8 10.7 11.2 90 0.9 NE 13 19 7 10 1015.1 1013.3 0.0
23/01:30am 13.2 11.1 11.3 88 1.1 NE 13 17 7 9 1015.9 1014.1 0.0
23/01:00am 13.1 10.6 11.0 87 1.2 NE 15 19 8 10 1016.3 1014.5 0.0

Other formats

Comma delimited format used in spreadsheet applications
http://www.bom.gov.au/fwo/IDN60801/IDN60801.95726.axf

JavaScript Object Notation format (JSON) in row-major order
http://www.bom.gov.au/fwo/IDN60801/IDN60801.95726.json

Data quality

Most of these data are generated automatically and are frequently updated. Quality checks on data are not normally performed. It is possible for incorrect values to appear. Refer to information at About Latest Weather Observations and please check the disclaimer before using these data.